Latest Weather Observations for Padthaway

IDS60801

Issued at 7:01 pm CST Monday 6 July 2015 (issued every 30 minutes, with the page automatically refreshed every 10 minutes)

About weather observations | Map of weather stations | Latest weather observations for SA | Other Formats
Station Details ID: 026100 Name: PADTHAWAY SOUTH Lat: -36.65 Lon: 140.52 Height: 37.0 m
Data from the previous 72 hours. | See also: Recent months at Padthaway
Date/Time
CST
Temp
°C
App
Temp
°C
Dew
Point
Rel
Hum
%
Delta-T
°C
Wind Press
QNH
hPa
Press
MSL
hPa
Rain
since 9 am
mm
Dir
 
Spd
km/h
Gust
km/h
Spd
kts
Gust
kts
06/07:00pm 8.1 5.7 6.9 92 0.6 NNW 9 9 5 5 - - 0.4
06/06:30pm 8.4 5.6 6.9 90 0.7 N 11 13 6 7 - - 0.4
06/06:00pm 8.8 6.7 6.6 86 1.0 NW 7 9 4 5 - - 0.4
06/05:30pm 9.7 7.7 7.1 84 1.2 NW 7 9 4 5 - - 0.4
06/05:00pm 11.2 9.6 8.9 86 1.1 WNW 7 7 4 4 - - 0.4
06/04:30pm 11.3 9.4 8.9 85 1.2 W 9 15 5 8 - - 0.4
06/04:00pm 11.8 9.2 9.5 86 1.2 W 13 17 7 9 - - 0.4
06/03:30pm 13.0 10.8 9.3 78 1.9 W 11 15 6 8 - - 0.2
06/03:00pm 12.6 9.0 8.5 76 2.0 W 17 26 9 14 - - 0.2
06/02:30pm 13.4 9.5 9.6 78 1.9 W 20 30 11 16 - - 0.2
06/02:00pm 14.8 11.4 9.2 69 2.9 W 17 26 9 14 - - 0.2
06/01:30pm 14.1 10.1 9.1 72 2.5 W 20 26 11 14 - - 0.2
06/01:00pm 13.5 10.4 10.3 81 1.7 W 17 28 9 15 - - 0.2
06/12:30pm 13.2 9.8 9.3 77 2.0 WNW 17 22 9 12 - - 0.0
06/12:00pm 13.9 9.7 9.7 76 2.2 NW 22 32 12 17 - - 0.0
06/11:30am 13.4 9.7 9.5 77 2.0 NW 19 26 10 14 - - 0.0
06/11:00am 13.1 8.4 9.4 78 1.9 NW 24 33 13 18 - - 0.0
06/10:30am 12.5 8.5 9.1 80 1.7 NNW 20 30 11 16 - - 0.0
06/10:00am 11.6 7.1 8.6 82 1.5 NW 22 32 12 17 - - 0.0
06/09:30am 11.3 6.8 8.5 83 1.4 NNW 22 32 12 17 - - 0.0
06/09:00am 10.7 6.5 8.1 84 1.3 NNW 20 26 11 14 - - 0.6
06/08:30am 9.8 5.7 7.7 87 1.0 NNW 19 26 10 14 - - 0.6
06/08:00am 9.6 5.8 7.5 87 1.0 N 17 22 9 12 - - 0.6
06/07:30am 9.3 6.2 7.3 87 0.9 NNW 13 19 7 10 - - 0.6
06/07:00am 9.5 6.5 7.6 88 0.9 NNW 13 19 7 10 - - 0.6
06/06:30am 9.8 6.8 7.7 87 1.0 N 13 19 7 10 - - 0.6
06/06:00am 9.9 6.2 8.0 88 0.9 NNW 17 20 9 11 - - 0.6
06/05:30am 10.0 6.8 8.3 89 0.8 N 15 19 8 10 - - 0.6
06/05:00am 10.2 6.7 8.6 90 0.8 NNW 17 22 9 12 - - 0.6
06/04:30am 10.3 6.3 9.1 92 0.6 N 20 28 11 15 - - 0.6
06/04:00am 9.8 6.1 7.9 88 0.9 NNW 17 22 9 12 - - 0.6
06/03:30am 10.6 6.1 6.9 78 1.8 NW 20 28 11 15 - - 0.2
06/03:00am 11.4 7.5 5.5 67 2.7 NNW 15 22 8 12 - - 0.0
06/02:30am 11.7 7.1 5.6 66 2.8 NNW 19 24 10 13 - - 0.0
06/02:00am 11.7 7.9 5.6 66 2.8 NNW 15 20 8 11 - - 0.0
06/01:30am 11.7 7.5 5.6 66 2.8 N 17 20 9 11 - - 0.0
06/01:00am 11.7 7.9 5.8 67 2.8 N 15 20 8 11 - - 0.0
06/12:30am 11.7 7.6 6.0 68 2.7 N 17 20 9 11 - - 0.0
06/12:00am 12.7 8.1 5.4 61 3.4 N 19 24 10 13 - - 0.0
 
Date/Time
CST
Temp
°C
App
Temp
°C
Dew
Point
Rel
Hum
%
Delta-T
°C
Wind Press
QNH
hPa
Press
MSL
hPa
Rain
since 9 am
mm
Dir
 
Spd
km/h
Gust
km/h
Spd
kts
Gust
kts
05/11:30pm 11.9 8.7 5.3 64 3.0 NNW 11 15 6 8 - - 0.0
05/11:00pm 11.7 8.7 5.8 67 2.8 N 11 13 6 7 - - 0.0
05/10:30pm 12.0 8.6 5.9 66 2.9 N 13 20 7 11 - - 0.0
05/10:00pm 12.3 8.5 5.7 64 3.1 NNW 15 20 8 11 - - 0.0
05/09:30pm 13.0 9.0 4.7 57 3.8 NNW 15 20 8 11 - - 0.0
05/09:00pm 13.0 9.4 5.2 59 3.6 NNW 13 17 7 9 - - 0.0
05/08:30pm 13.4 9.4 5.1 57 3.9 NNW 15 20 8 11 - - 0.0
05/08:00pm 13.4 9.5 5.3 58 3.8 NNW 15 20 8 11 - - 0.0
05/07:30pm 13.0 9.5 5.4 60 3.6 NNW 13 17 7 9 - - 0.0
05/07:00pm 12.8 9.3 5.5 61 3.4 NNW 13 17 7 9 - - 0.0
05/06:30pm 12.4 9.3 5.6 63 3.2 N 11 13 6 7 - - 0.0
05/06:00pm 13.0 9.4 5.2 59 3.6 NNW 13 15 7 8 - - 0.0
05/05:30pm 13.1 10.1 5.8 61 3.4 NNW 11 13 6 7 - - 0.0
05/05:00pm 13.8 10.3 5.4 57 3.9 NW 13 17 7 9 - - 0.0
05/04:30pm 14.9 10.6 5.1 52 4.6 NW 17 22 9 12 - - 0.0
05/04:00pm 15.3 11.9 5.8 53 4.6 NW 13 19 7 10 - - 0.0
05/03:30pm 15.7 11.9 5.9 52 4.7 NW 15 20 8 11 - - 0.0
05/03:00pm 15.8 11.8 6.5 54 4.5 NW 17 24 9 13 - - 0.0
05/02:30pm 15.6 10.5 6.1 53 4.6 NW 22 30 12 16 - - 0.0
05/02:00pm 15.8 11.2 6.5 54 4.5 NW 20 28 11 15 - - 0.0
05/01:30pm 15.8 10.4 6.5 54 4.5 NW 24 30 13 16 - - 0.0
05/01:00pm 15.9 10.9 6.6 54 4.6 NNW 22 28 12 15 - - 0.0
05/12:30pm 15.4 10.8 6.7 56 4.3 NNW 20 30 11 16 - - 0.0
05/12:00pm 15.1 10.7 7.6 61 3.7 NNW 20 24 11 13 - - 0.0
05/11:30am 14.1 10.2 7.2 63 3.4 NNW 17 24 9 13 - - 0.0
05/11:00am 13.2 8.9 6.8 65 3.1 N 19 26 10 14 - - 0.0
05/10:30am 12.4 7.9 6.9 69 2.6 N 20 24 11 13 - - 0.0
05/10:00am 11.6 7.2 6.5 71 2.4 N 19 26 10 14 - - 0.0
05/09:30am 10.7 5.9 5.7 71 2.3 N 20 30 11 16 - - 0.0
05/09:00am 9.6 4.6 4.8 72 2.2 N 20 26 11 14 - - 0.0
05/08:30am 8.9 4.8 4.3 73 2.0 N 15 24 8 13 - - 0.0
05/08:00am 7.8 3.2 3.8 76 1.7 N 17 22 9 12 - - 0.0
05/07:30am 7.7 3.1 3.7 76 1.7 N 17 22 9 12 - - 0.0
05/07:00am 7.2 2.9 3.4 77 1.6 N 15 19 8 10 - - 0.0
05/06:30am 7.4 3.2 3.6 77 1.6 N 15 20 8 11 - - 0.0
05/06:00am 7.2 2.9 3.4 77 1.6 N 15 19 8 10 - - 0.0
05/05:30am 7.4 3.1 3.5 76 1.7 NNW 15 17 8 9 - - 0.0
05/05:00am 7.8 3.2 3.7 75 1.8 N 17 20 9 11 - - 0.0
05/04:30am 7.4 3.5 3.6 77 1.6 N 13 19 7 10 - - 0.0
05/04:00am 7.5 3.3 3.7 77 1.6 N 15 19 8 10 - - 0.0
05/03:30am 8.0 4.3 4.2 77 1.7 N 13 19 7 10 - - 0.0
05/03:00am 7.6 4.2 4.2 79 1.5 N 11 15 6 8 - - 0.0
05/02:30am 7.5 4.2 4.3 80 1.4 N 11 13 6 7 - - 0.0
05/02:00am 7.9 4.6 4.5 79 1.5 N 11 15 6 8 - - 0.0
05/01:30am 8.1 4.8 4.7 79 1.5 N 11 17 6 9 - - 0.0
05/01:00am 7.9 4.3 4.8 81 1.4 N 13 15 7 8 - - 0.0
05/12:30am 8.1 4.9 5.0 81 1.4 N 11 13 6 7 - - 0.0
05/12:00am 8.2 5.0 5.0 80 1.4 N 11 13 6 7 - - 0.0
 
Date/Time
CST
Temp
°C
App
Temp
°C
Dew
Point
Rel
Hum
%
Delta-T
°C
Wind Press
QNH
hPa
Press
MSL
hPa
Rain
since 9 am
mm
Dir
 
Spd
km/h
Gust
km/h
Spd
kts
Gust
kts
04/11:30pm 7.5 4.7 5.0 84 1.1 N 9 11 5 6 - - 0.0
04/11:00pm 7.8 4.3 5.3 84 1.1 N 13 15 7 8 - - 0.0
04/10:30pm 8.1 5.0 5.6 84 1.1 N 11 13 6 7 - - 0.0
04/10:00pm 8.1 4.7 5.9 86 1.0 N 13 15 7 8 - - 0.0
04/09:30pm 7.7 4.6 5.7 87 0.9 N 11 13 6 7 - - 0.0
04/09:00pm 7.6 4.5 5.6 87 0.9 N 11 13 6 7 - - 0.0
04/08:30pm 8.5 5.9 6.0 84 1.1 N 9 11 5 6 - - 0.0
04/08:00pm 8.7 6.1 6.3 85 1.1 N 9 11 5 6 - - 0.0
04/07:30pm 8.5 5.8 5.8 83 1.2 N 9 9 5 5 - - 0.0
04/07:00pm 9.8 9.1 6.9 82 1.4 CALM 0 0 0 0 - - 0.0
04/06:30pm 9.9 8.0 6.8 81 1.5 N 6 7 3 4 - - 0.0
04/06:00pm 9.9 7.8 6.6 80 1.5 N 7 9 4 5 - - 0.0
04/05:30pm 10.3 9.5 6.3 76 1.9 CALM 0 7 0 4 - - 0.0
04/05:00pm 11.8 11.0 6.7 71 2.4 CALM 0 0 0 0 - - 0.0
04/04:30pm 12.8 12.2 7.3 69 2.7 CALM 0 0 0 0 - - 0.0
04/04:00pm 13.1 12.4 7.1 67 2.9 CALM 0 0 0 0 - - 0.0
04/03:30pm 13.0 11.0 7.0 67 2.9 NNW 7 9 4 5 - - 0.0
04/03:00pm 13.1 10.2 6.7 65 3.1 NW 11 15 6 8 - - 0.0
04/02:30pm 13.2 10.0 6.8 65 3.1 NNW 13 19 7 10 - - 0.0
04/02:00pm 13.3 9.7 6.6 64 3.2 NW 15 19 8 10 - - 0.0
04/01:30pm 13.1 9.1 6.5 64 3.2 NNW 17 22 9 12 - - 0.0
04/01:00pm 14.0 9.7 6.8 62 3.5 NNW 19 24 10 13 - - 0.0
04/12:30pm 12.9 8.4 6.3 64 3.1 NNW 19 22 10 12 - - 0.0
04/12:00pm 13.2 9.1 6.1 62 3.4 NNW 17 22 9 12 - - 0.0
04/11:30am 12.7 8.1 5.8 63 3.2 NNW 19 26 10 14 - - 0.0
04/11:00am 12.5 7.7 5.4 62 3.3 NW 20 26 11 14 - - 0.0
04/10:30am 11.7 8.4 6.2 69 2.6 NNW 13 17 7 9 - - 0.0
04/10:00am 10.4 6.9 5.4 71 2.3 N 13 15 7 8 - - 0.0
04/09:30am 9.2 5.5 4.6 73 2.0 N 13 17 7 9 - - 0.0
04/09:00am 8.6 4.9 4.2 74 1.9 N 13 15 7 8 - - 0.0
04/08:30am 8.3 4.9 4.1 75 1.8 N 11 13 6 7 - - 0.0
04/08:00am 7.6 3.8 3.8 77 1.6 N 13 15 7 8 - - 0.0
04/07:30am 7.5 4.5 3.9 78 1.5 N 9 11 5 6 - - 0.0
04/07:00am 7.7 4.2 3.7 76 1.7 NNW 11 13 6 7 - - 0.0
04/06:30am 7.7 4.2 3.7 76 1.7 N 11 13 6 7 - - 0.0
04/06:00am 7.9 4.5 3.9 76 1.7 N 11 13 6 7 - - 0.0
04/05:30am 7.9 4.5 3.9 76 1.7 N 11 13 6 7 - - 0.0
04/05:00am 7.7 4.6 3.7 76 1.7 NNW 9 13 5 7 - - 0.0
04/04:30am 7.4 4.3 3.5 76 1.7 N 9 11 5 6 - - 0.0
04/04:00am 7.0 3.8 3.1 76 1.6 N 9 13 5 7 - - 0.0
04/03:30am 7.3 3.3 3.0 74 1.8 N 13 17 7 9 - - 0.0
04/03:00am 7.8 3.8 3.1 72 2.0 N 13 17 7 9 - - 0.0
04/02:30am 7.3 4.1 3.2 75 1.7 N 9 11 5 6 - - 0.0
04/02:00am 7.1 4.3 3.2 76 1.6 NNW 7 9 4 5 - - 0.0
04/01:30am 7.1 3.9 2.8 74 1.8 N 9 13 5 7 - - 0.0
04/01:00am 7.5 3.8 2.6 71 2.0 N 11 13 6 7 - - 0.0
04/12:30am 7.9 3.9 3.0 71 2.1 N 13 15 7 8 - - 0.0
04/12:00am 7.8 4.2 2.7 70 2.1 N 11 13 6 7 - - 0.0
 
Date/Time
CST
Temp
°C
App
Temp
°C
Dew
Point
Rel
Hum
%
Delta-T
°C
Wind Press
QNH
hPa
Press
MSL
hPa
Rain
since 9 am
mm
Dir
 
Spd
km/h
Gust
km/h
Spd
kts
Gust
kts
03/11:30pm 7.9 4.7 3.2 72 2.0 N 9 11 5 6 - - 0.0
03/11:00pm 7.7 4.5 2.8 71 2.1 N 9 11 5 6 - - 0.0
03/10:30pm 7.3 4.1 2.8 73 1.9 N 9 9 5 5 - - 0.0
03/10:00pm 7.3 4.4 2.6 72 2.0 N 7 9 4 5 - - 0.0
03/09:30pm 7.4 4.2 3.1 74 1.8 N 9 11 5 6 - - 0.0
03/09:00pm 7.1 4.2 2.6 73 1.9 NNW 7 7 4 4 - - 0.0
03/08:30pm 7.7 4.9 3.0 72 2.0 WNW 7 9 4 5 - - 0.0
03/08:00pm 8.1 4.8 2.6 68 2.3 NNW 9 11 5 6 - - 0.0
03/07:30pm 8.3 5.1 2.8 68 2.3 NNW 9 11 5 6 - - 0.0

Other Formats:

Comma delimited format used in spreadsheet applications
http://www.bom.gov.au/fwo/IDS60801/IDS60801.95823.axf

JavaScript Object Notation format (JSON) in row-major order
http://www.bom.gov.au/fwo/IDS60801/IDS60801.95823.json